sensor_id;sensor_type;location;lat;lon;timestamp;temperature;humidity
44855;DHT22;30591;48.228;16.398;2023-08-07T14:04:33;18.70;99.90
44855;DHT22;30591;48.228;16.398;2023-08-07T14:07:01;25.50;99.90
44855;DHT22;30591;48.228;16.398;2023-08-07T14:09:29;26.60;99.80
44855;DHT22;30591;48.228;16.398;2023-08-07T14:11:56;25.80;99.70
44855;DHT22;30591;48.228;16.398;2023-08-07T14:14:25;24.40;99.90
44855;DHT22;30591;48.228;16.398;2023-08-07T14:16:52;21.80;99.90
44855;DHT22;30591;48.228;16.398;2023-08-07T14:19:24;23.00;99.90
44855;DHT22;30591;48.228;16.398;2023-08-07T14:21:51;25.20;99.90
44855;DHT22;30591;48.228;16.398;2023-08-07T14:24:19;26.00;98.70
44855;DHT22;30591;48.228;16.398;2023-08-07T14:26:46;25.00;99.90
44855;DHT22;30591;48.228;16.398;2023-08-07T14:29:14;26.30;97.80
44855;DHT22;30591;48.228;16.398;2023-08-07T14:31:41;25.50;97.90
44855;DHT22;30591;48.228;16.398;2023-08-07T14:34:08;25.40;97.60
44855;DHT22;30591;48.228;16.398;2023-08-07T14:36:36;27.50;96.20
44855;DHT22;30591;48.228;16.398;2023-08-07T14:39:04;27.90;94.80
44855;DHT22;30591;48.228;16.398;2023-08-07T14:41:31;28.30;93.80
44855;DHT22;30591;48.228;16.398;2023-08-07T14:43:58;27.20;93.80
44855;DHT22;30591;48.228;16.398;2023-08-07T14:46:25;26.70;94.70
44855;DHT22;30591;48.228;16.398;2023-08-07T14:48:53;27.00;95.00
44855;DHT22;30591;48.228;16.398;2023-08-07T14:51:20;26.40;94.40
44855;DHT22;30591;48.228;16.398;2023-08-07T14:53:47;26.10;94.30
44855;DHT22;30591;48.228;16.398;2023-08-07T14:56:14;26.60;93.30
44855;DHT22;30591;48.228;16.398;2023-08-07T14:58:42;27.40;92.90
44855;DHT22;30591;48.228;16.398;2023-08-07T15:01:09;27.70;92.30
44855;DHT22;30591;48.228;16.398;2023-08-07T15:03:37;27.20;92.50
44855;DHT22;30591;48.228;16.398;2023-08-07T15:06:04;26.30;93.70
44855;DHT22;30591;48.228;16.398;2023-08-07T15:08:32;26.90;94.00
44855;DHT22;30591;48.228;16.398;2023-08-07T15:11:00;27.90;92.10
44855;DHT22;30591;48.228;16.398;2023-08-07T15:13:27;27.00;92.00
44855;DHT22;30591;48.228;16.398;2023-08-07T15:15:56;26.90;92.30
44855;DHT22;30591;48.228;16.398;2023-08-07T15:18:23;26.90;91.90
44855;DHT22;30591;48.228;16.398;2023-08-07T15:20:51;27.20;91.20
44855;DHT22;30591;48.228;16.398;2023-08-07T15:23:18;27.50;91.00
44855;DHT22;30591;48.228;16.398;2023-08-07T15:25:46;26.80;91.70
44855;DHT22;30591;48.228;16.398;2023-08-07T15:28:14;27.60;90.70
44855;DHT22;30591;48.228;16.398;2023-08-07T15:30:49;26.50;91.80
44855;DHT22;30591;48.228;16.398;2023-08-07T15:33:18;26.20;91.70
44855;DHT22;30591;48.228;16.398;2023-08-07T15:35:53;26.40;91.70
44855;DHT22;30591;48.228;16.398;2023-08-07T15:38:21;27.30;91.00
44855;DHT22;30591;48.228;16.398;2023-08-07T15:40:50;26.60;91.60
44855;DHT22;30591;48.228;16.398;2023-08-07T15:43:18;27.40;90.60
44855;DHT22;30591;48.228;16.398;2023-08-07T15:45:45;26.80;90.10
44855;DHT22;30591;48.228;16.398;2023-08-07T15:48:16;22.70;94.00
44855;DHT22;30591;48.228;16.398;2023-08-07T15:50:44;22.60;95.30
44855;DHT22;30591;48.228;16.398;2023-08-07T15:53:11;22.20;94.60
44855;DHT22;30591;48.228;16.398;2023-08-07T15:55:38;20.30;97.40
44855;DHT22;30591;48.228;16.398;2023-08-07T15:58:06;19.50;98.60
44855;DHT22;30591;48.228;16.398;2023-08-07T16:00:34;19.00;99.20
44855;DHT22;30591;48.228;16.398;2023-08-07T16:03:03;19.00;99.60
44855;DHT22;30591;48.228;16.398;2023-08-07T16:05:32;19.00;99.30
44855;DHT22;30591;48.228;16.398;2023-08-07T16:08:01;18.90;99.90
44855;DHT22;30591;48.228;16.398;2023-08-07T16:10:31;19.00;99.90
44855;DHT22;30591;48.228;16.398;2023-08-07T16:12:59;19.10;99.90
44855;DHT22;30591;48.228;16.398;2023-08-07T16:15:26;19.20;99.90
44855;DHT22;30591;48.228;16.398;2023-08-07T16:17:54;19.40;99.90
44855;DHT22;30591;48.228;16.398;2023-08-07T16:20:21;19.20;99.90
44855;DHT22;30591;48.228;16.398;2023-08-07T16:22:49;19.40;99.90
44855;DHT22;30591;48.228;16.398;2023-08-07T16:25:17;18.70;99.90
44855;DHT22;30591;48.228;16.398;2023-08-07T16:27:45;18.20;99.90
44855;DHT22;30591;48.228;16.398;2023-08-07T16:30:12;18.10;99.90
44855;DHT22;30591;48.228;16.398;2023-08-07T16:32:39;17.80;99.90
44855;DHT22;30591;48.228;16.398;2023-08-07T16:35:07;18.00;99.90
44855;DHT22;30591;48.228;16.398;2023-08-07T16:37:35;18.00;99.90
44855;DHT22;30591;48.228;16.398;2023-08-07T16:40:04;18.00;99.90
44855;DHT22;30591;48.228;16.398;2023-08-07T16:42:32;17.90;99.90
44855;DHT22;30591;48.228;16.398;2023-08-07T16:44:59;17.60;99.90
44855;DHT22;30591;48.228;16.398;2023-08-07T16:47:27;17.50;99.90
44855;DHT22;30591;48.228;16.398;2023-08-07T16:49:54;17.60;99.90
44855;DHT22;30591;48.228;16.398;2023-08-07T16:52:22;17.50;99.90
44855;DHT22;30591;48.228;16.398;2023-08-07T16:54:49;17.30;99.90
44855;DHT22;30591;48.228;16.398;2023-08-07T16:57:20;17.10;99.90
44855;DHT22;30591;48.228;16.398;2023-08-07T16:59:48;17.10;99.90
44855;DHT22;30591;48.228;16.398;2023-08-07T17:02:15;17.10;99.90
44855;DHT22;30591;48.228;16.398;2023-08-07T17:04:43;17.00;99.90
44855;DHT22;30591;48.228;16.398;2023-08-07T17:07:11;16.90;99.90
44855;DHT22;30591;48.228;16.398;2023-08-07T17:09:38;17.00;99.90
44855;DHT22;30591;48.228;16.398;2023-08-07T17:12:06;17.00;99.90
44855;DHT22;30591;48.228;16.398;2023-08-07T17:14:34;16.90;99.90
44855;DHT22;30591;48.228;16.398;2023-08-07T17:17:02;17.00;99.90
44855;DHT22;30591;48.228;16.398;2023-08-07T17:19:29;16.90;99.90
44855;DHT22;30591;48.228;16.398;2023-08-07T17:21:56;16.90;99.90
44855;DHT22;30591;48.228;16.398;2023-08-07T17:24:24;16.80;99.90
44855;DHT22;30591;48.228;16.398;2023-08-07T17:26:52;16.70;99.90
44855;DHT22;30591;48.228;16.398;2023-08-07T17:29:19;16.80;99.90
44855;DHT22;30591;48.228;16.398;2023-08-07T17:31:47;16.90;99.90
44855;DHT22;30591;48.228;16.398;2023-08-07T17:34:14;16.90;99.90
44855;DHT22;30591;48.228;16.398;2023-08-07T17:36:42;16.90;99.90
44855;DHT22;30591;48.228;16.398;2023-08-07T17:39:09;16.90;99.90
44855;DHT22;30591;48.228;16.398;2023-08-07T17:41:36;16.80;99.90
44855;DHT22;30591;48.228;16.398;2023-08-07T17:44:05;16.90;99.90
44855;DHT22;30591;48.228;16.398;2023-08-07T17:46:32;16.90;99.90
44855;DHT22;30591;48.228;16.398;2023-08-07T17:49:00;16.80;99.90
44855;DHT22;30591;48.228;16.398;2023-08-07T17:51:27;16.80;99.90
44855;DHT22;30591;48.228;16.398;2023-08-07T17:53:56;16.90;99.90
44855;DHT22;30591;48.228;16.398;2023-08-07T17:56:23;16.80;99.90
44855;DHT22;30591;48.228;16.398;2023-08-07T17:58:51;16.70;99.90
44855;DHT22;30591;48.228;16.398;2023-08-07T18:01:19;16.70;99.90
44855;DHT22;30591;48.228;16.398;2023-08-07T18:03:46;16.60;99.90
44855;DHT22;30591;48.228;16.398;2023-08-07T18:06:14;16.50;99.90
44855;DHT22;30591;48.228;16.398;2023-08-07T18:08:41;16.50;99.90
44855;DHT22;30591;48.228;16.398;2023-08-07T18:11:08;16.40;99.90
44855;DHT22;30591;48.228;16.398;2023-08-07T18:13:36;16.30;99.90
44855;DHT22;30591;48.228;16.398;2023-08-07T18:16:04;16.20;99.90
44855;DHT22;30591;48.228;16.398;2023-08-07T18:18:31;16.10;99.90
44855;DHT22;30591;48.228;16.398;2023-08-07T18:20:59;16.10;99.90
44855;DHT22;30591;48.228;16.398;2023-08-07T18:23:26;16.00;99.90
44855;DHT22;30591;48.228;16.398;2023-08-07T18:25:54;16.00;99.90
44855;DHT22;30591;48.228;16.398;2023-08-07T18:28:21;15.90;99.90
44855;DHT22;30591;48.228;16.398;2023-08-07T18:30:49;15.90;99.90
44855;DHT22;30591;48.228;16.398;2023-08-07T18:33:16;15.90;99.90
44855;DHT22;30591;48.228;16.398;2023-08-07T18:35:43;15.80;99.90
44855;DHT22;30591;48.228;16.398;2023-08-07T18:38:11;15.80;99.90
44855;DHT22;30591;48.228;16.398;2023-08-07T18:40:38;15.70;99.90
44855;DHT22;30591;48.228;16.398;2023-08-07T18:43:05;15.80;99.90
44855;DHT22;30591;48.228;16.398;2023-08-07T18:45:32;15.70;99.90
44855;DHT22;30591;48.228;16.398;2023-08-07T18:47:59;15.70;99.90
44855;DHT22;30591;48.228;16.398;2023-08-07T18:50:27;15.70;99.90
44855;DHT22;30591;48.228;16.398;2023-08-07T18:52:54;15.80;99.90
44855;DHT22;30591;48.228;16.398;2023-08-07T18:55:23;15.70;99.90
44855;DHT22;30591;48.228;16.398;2023-08-07T18:57:50;15.70;99.90
44855;DHT22;30591;48.228;16.398;2023-08-07T19:00:18;15.80;99.90
44855;DHT22;30591;48.228;16.398;2023-08-07T19:02:46;15.80;99.90
44855;DHT22;30591;48.228;16.398;2023-08-07T19:05:13;15.80;99.90
44855;DHT22;30591;48.228;16.398;2023-08-07T19:07:40;15.70;99.90
44855;DHT22;30591;48.228;16.398;2023-08-07T19:10:09;15.70;99.90
44855;DHT22;30591;48.228;16.398;2023-08-07T19:12:36;15.70;99.90
44855;DHT22;30591;48.228;16.398;2023-08-07T19:15:04;15.70;99.90
44855;DHT22;30591;48.228;16.398;2023-08-07T19:17:31;15.80;99.90
44855;DHT22;30591;48.228;16.398;2023-08-07T19:20:00;15.70;99.90
44855;DHT22;30591;48.228;16.398;2023-08-07T19:22:27;15.80;99.90
44855;DHT22;30591;48.228;16.398;2023-08-07T19:24:57;15.70;99.90
44855;DHT22;30591;48.228;16.398;2023-08-07T19:27:24;15.70;99.90
44855;DHT22;30591;48.228;16.398;2023-08-07T19:29:51;15.70;99.90
44855;DHT22;30591;48.228;16.398;2023-08-07T19:32:20;15.70;99.90
44855;DHT22;30591;48.228;16.398;2023-08-07T19:34:48;15.70;99.90
44855;DHT22;30591;48.228;16.398;2023-08-07T19:37:15;15.70;99.90
44855;DHT22;30591;48.228;16.398;2023-08-07T19:39:42;15.70;99.90
44855;DHT22;30591;48.228;16.398;2023-08-07T19:42:09;15.70;99.90
44855;DHT22;30591;48.228;16.398;2023-08-07T19:44:37;15.60;99.90
44855;DHT22;30591;48.228;16.398;2023-08-07T19:47:04;15.60;99.90
44855;DHT22;30591;48.228;16.398;2023-08-07T19:49:31;15.60;99.90
44855;DHT22;30591;48.228;16.398;2023-08-07T19:51:59;15.70;99.90
44855;DHT22;30591;48.228;16.398;2023-08-07T19:54:27;15.60;99.90
44855;DHT22;30591;48.228;16.398;2023-08-07T19:56:54;15.60;99.90
44855;DHT22;30591;48.228;16.398;2023-08-07T19:59:22;15.50;99.90
44855;DHT22;30591;48.228;16.398;2023-08-07T20:01:50;15.50;99.90
44855;DHT22;30591;48.228;16.398;2023-08-07T20:04:18;15.60;99.90
44855;DHT22;30591;48.228;16.398;2023-08-07T20:06:45;15.50;99.90
44855;DHT22;30591;48.228;16.398;2023-08-07T20:09:13;15.40;99.90
44855;DHT22;30591;48.228;16.398;2023-08-07T20:11:41;15.50;99.90
44855;DHT22;30591;48.228;16.398;2023-08-07T20:14:08;15.40;99.90
44855;DHT22;30591;48.228;16.398;2023-08-07T20:16:35;15.40;99.90
44855;DHT22;30591;48.228;16.398;2023-08-07T20:19:03;15.50;99.90
44855;DHT22;30591;48.228;16.398;2023-08-07T20:21:30;15.50;99.90
44855;DHT22;30591;48.228;16.398;2023-08-07T20:23:57;15.40;99.90
44855;DHT22;30591;48.228;16.398;2023-08-07T20:26:25;15.30;99.90
44855;DHT22;30591;48.228;16.398;2023-08-07T20:28:52;15.30;99.90
44855;DHT22;30591;48.228;16.398;2023-08-07T20:31:20;15.30;99.90
44855;DHT22;30591;48.228;16.398;2023-08-07T20:33:47;15.30;99.90
44855;DHT22;30591;48.228;16.398;2023-08-07T20:36:14;15.30;99.90
44855;DHT22;30591;48.228;16.398;2023-08-07T20:38:42;15.30;99.90
44855;DHT22;30591;48.228;16.398;2023-08-07T20:41:10;15.30;99.90
44855;DHT22;30591;48.228;16.398;2023-08-07T20:43:37;15.30;99.90
44855;DHT22;30591;48.228;16.398;2023-08-07T20:46:04;15.30;99.90
44855;DHT22;30591;48.228;16.398;2023-08-07T20:48:31;15.30;99.90
44855;DHT22;30591;48.228;16.398;2023-08-07T20:50:59;15.20;99.90
44855;DHT22;30591;48.228;16.398;2023-08-07T20:53:26;15.20;99.90
44855;DHT22;30591;48.228;16.398;2023-08-07T20:55:53;15.10;99.90
44855;DHT22;30591;48.228;16.398;2023-08-07T20:58:21;15.10;99.90
44855;DHT22;30591;48.228;16.398;2023-08-07T21:00:48;15.10;99.90
44855;DHT22;30591;48.228;16.398;2023-08-07T21:03:15;15.10;99.90
44855;DHT22;30591;48.228;16.398;2023-08-07T21:05:43;15.00;99.90
44855;DHT22;30591;48.228;16.398;2023-08-07T21:08:11;15.00;99.90
44855;DHT22;30591;48.228;16.398;2023-08-07T21:10:38;14.90;99.90
44855;DHT22;30591;48.228;16.398;2023-08-07T21:13:05;14.90;99.90
44855;DHT22;30591;48.228;16.398;2023-08-07T21:15:33;14.90;99.90
44855;DHT22;30591;48.228;16.398;2023-08-07T21:18:01;14.80;99.90
44855;DHT22;30591;48.228;16.398;2023-08-07T21:20:29;14.80;99.90
44855;DHT22;30591;48.228;16.398;2023-08-07T21:22:56;14.70;99.90
44855;DHT22;30591;48.228;16.398;2023-08-07T21:25:24;14.70;99.90
44855;DHT22;30591;48.228;16.398;2023-08-07T21:27:51;14.70;99.90
44855;DHT22;30591;48.228;16.398;2023-08-07T21:30:18;14.70;99.90
44855;DHT22;30591;48.228;16.398;2023-08-07T21:32:46;14.70;99.90
44855;DHT22;30591;48.228;16.398;2023-08-07T21:35:13;14.70;99.90
44855;DHT22;30591;48.228;16.398;2023-08-07T21:37:41;14.70;99.90
44855;DHT22;30591;48.228;16.398;2023-08-07T21:40:10;14.70;99.90
44855;DHT22;30591;48.228;16.398;2023-08-07T21:42:38;14.80;99.90
44855;DHT22;30591;48.228;16.398;2023-08-07T21:45:07;14.80;99.90
44855;DHT22;30591;48.228;16.398;2023-08-07T21:47:34;14.80;99.90
44855;DHT22;30591;48.228;16.398;2023-08-07T21:50:02;14.80;99.90
44855;DHT22;30591;48.228;16.398;2023-08-07T21:52:29;14.80;99.90
44855;DHT22;30591;48.228;16.398;2023-08-07T21:54:56;14.70;99.90
44855;DHT22;30591;48.228;16.398;2023-08-07T21:57:24;14.70;99.90
44855;DHT22;30591;48.228;16.398;2023-08-07T21:59:51;14.60;99.90
44855;DHT22;30591;48.228;16.398;2023-08-07T22:02:18;14.60;99.90
44855;DHT22;30591;48.228;16.398;2023-08-07T22:04:46;14.60;99.90
44855;DHT22;30591;48.228;16.398;2023-08-07T22:07:13;14.60;99.90
44855;DHT22;30591;48.228;16.398;2023-08-07T22:09:40;14.50;99.90
44855;DHT22;30591;48.228;16.398;2023-08-07T22:12:08;14.60;99.90
44855;DHT22;30591;48.228;16.398;2023-08-07T22:14:35;14.60;99.90
44855;DHT22;30591;48.228;16.398;2023-08-07T22:17:03;14.50;99.90
44855;DHT22;30591;48.228;16.398;2023-08-07T22:19:30;14.50;99.90
44855;DHT22;30591;48.228;16.398;2023-08-07T22:21:58;14.50;99.90
44855;DHT22;30591;48.228;16.398;2023-08-07T22:24:26;14.50;99.90
44855;DHT22;30591;48.228;16.398;2023-08-07T22:26:54;14.40;99.90
44855;DHT22;30591;48.228;16.398;2023-08-07T22:29:22;14.40;99.90
44855;DHT22;30591;48.228;16.398;2023-08-07T22:31:49;14.30;99.90
44855;DHT22;30591;48.228;16.398;2023-08-07T22:34:16;14.20;99.90
44855;DHT22;30591;48.228;16.398;2023-08-07T22:36:44;14.10;99.90
44855;DHT22;30591;48.228;16.398;2023-08-07T22:39:11;14.10;99.90
44855;DHT22;30591;48.228;16.398;2023-08-07T22:41:38;14.10;99.90
44855;DHT22;30591;48.228;16.398;2023-08-07T22:44:06;14.10;99.90
44855;DHT22;30591;48.228;16.398;2023-08-07T22:46:33;14.10;99.90
44855;DHT22;30591;48.228;16.398;2023-08-07T22:49:00;14.10;99.90
44855;DHT22;30591;48.228;16.398;2023-08-07T22:51:27;14.10;99.90
44855;DHT22;30591;48.228;16.398;2023-08-07T22:53:55;14.10;99.90
44855;DHT22;30591;48.228;16.398;2023-08-07T22:56:22;14.10;99.90
44855;DHT22;30591;48.228;16.398;2023-08-07T22:58:51;14.10;99.90
44855;DHT22;30591;48.228;16.398;2023-08-07T23:01:18;14.00;99.90
44855;DHT22;30591;48.228;16.398;2023-08-07T23:03:45;14.10;99.90
44855;DHT22;30591;48.228;16.398;2023-08-07T23:06:13;14.00;99.90
44855;DHT22;30591;48.228;16.398;2023-08-07T23:08:43;14.00;99.90
44855;DHT22;30591;48.228;16.398;2023-08-07T23:11:11;13.90;99.90
44855;DHT22;30591;48.228;16.398;2023-08-07T23:13:38;13.90;99.90
44855;DHT22;30591;48.228;16.398;2023-08-07T23:16:05;13.90;99.90
44855;DHT22;30591;48.228;16.398;2023-08-07T23:18:33;13.90;99.90
44855;DHT22;30591;48.228;16.398;2023-08-07T23:21:00;13.90;99.90
44855;DHT22;30591;48.228;16.398;2023-08-07T23:23:27;13.90;99.90
44855;DHT22;30591;48.228;16.398;2023-08-07T23:25:54;13.80;99.90
44855;DHT22;30591;48.228;16.398;2023-08-07T23:28:23;13.80;99.90
44855;DHT22;30591;48.228;16.398;2023-08-07T23:30:50;13.70;99.90
44855;DHT22;30591;48.228;16.398;2023-08-07T23:33:17;13.70;99.90
44855;DHT22;30591;48.228;16.398;2023-08-07T23:35:45;13.60;99.90
44855;DHT22;30591;48.228;16.398;2023-08-07T23:38:12;13.70;99.90
44855;DHT22;30591;48.228;16.398;2023-08-07T23:40:39;13.70;99.90
44855;DHT22;30591;48.228;16.398;2023-08-07T23:43:08;13.70;99.90
44855;DHT22;30591;48.228;16.398;2023-08-07T23:45:36;13.70;99.90
44855;DHT22;30591;48.228;16.398;2023-08-07T23:48:04;13.70;99.90
44855;DHT22;30591;48.228;16.398;2023-08-07T23:50:32;13.70;99.90
44855;DHT22;30591;48.228;16.398;2023-08-07T23:52:59;13.60;99.90
44855;DHT22;30591;48.228;16.398;2023-08-07T23:55:26;13.60;99.90
44855;DHT22;30591;48.228;16.398;2023-08-07T23:57:54;13.60;99.90
